Time;durP1;ratioP1;P1;durP2;ratioP2;P2;SDS_P1;SDS_P2;PMS_P1;PMS_P2;Temp;Humidity;BMP_temperature;BMP_pressure;BME280_temperature;BME280_humidity;BME280_pressure;Samples;Min_cycle;Max_cycle;Signal;HPM_P1;HPM_P2
2023/04/14 00:00:20;;;;;;;74.57;58.43;;;4.70;99.90;;;;;;5022847;28;20665;-84
2023/04/14 00:03:19;;;;;;;84.70;63.37;;;4.70;99.90;;;;;;5031151;28;20214;-84
2023/04/14 00:06:11;;;;;;;66.17;49.27;;;4.80;99.90;;;;;;5031799;28;20192;-84
2023/04/14 00:08:54;;;;;;;82.33;57.80;;;4.80;99.90;;;;;;5028597;28;20226;-84
2023/04/14 00:12:36;;;;;;;64.63;39.43;;;4.80;99.90;;;;;;5031716;28;20308;-84
2023/04/14 00:21:48;;;;;;;318.70;61.47;;;4.60;99.90;;;;;;5028662;28;20213;-84
2023/04/14 00:24:39;;;;;;;500.87;163.17;;;4.60;99.90;;;;;;5031507;28;20288;-84
2023/04/14 00:27:54;;;;;;;1333.33;317.47;;;4.50;99.90;;;;;;5031570;28;20224;-84
2023/04/14 00:31:11;;;;;;;596.87;145.43;;;4.50;99.90;;;;;;5023911;28;20210;-84
2023/04/14 00:34:09;;;;;;;385.00;124.40;;;4.60;99.90;;;;;;5026023;28;20252;-85
2023/04/14 00:37:20;;;;;;;504.83;143.63;;;4.50;99.90;;;;;;5030967;28;20251;-84
2023/04/14 00:40:25;;;;;;;137.40;51.83;;;4.50;99.90;;;;;;5030541;28;20666;-85
2023/04/14 00:43:03;;;;;;;58.63;38.10;;;4.50;99.90;;;;;;5021717;28;20280;-84
2023/04/14 00:52:28;;;;;;;83.30;43.60;;;4.50;99.90;;;;;;5029690;28;20214;-84
2023/04/14 00:58:28;;;;;;;39.97;22.93;;;4.50;99.90;;;;;;5029727;28;20206;-84
2023/04/14 01:01:43;;;;;;;361.77;71.17;;;4.50;99.90;;;;;;5030680;28;20229;-84
2023/04/14 01:04:27;;;;;;;193.27;55.00;;;4.40;99.90;;;;;;5029929;28;20211;-84
2023/04/14 01:07:27;;;;;;;1895.73;399.20;;;4.30;99.90;;;;;;5016159;28;20225;-84
2023/04/14 01:10:39;;;;;;;161.33;74.93;;;4.20;99.90;;;;;;5013105;28;20256;-84
2023/04/14 01:13:40;;;;;;;432.40;103.73;;;4.10;99.90;;;;;;5001205;28;20289;-84
2023/04/14 01:20:21;;;;;;;101.60;90.00;;;4.10;99.90;;;;;;5027405;28;20210;-85
2023/04/14 01:23:33;;;;;;;635.37;198.07;;;4.10;99.90;;;;;;5030866;28;20297;-85
2023/04/14 01:26:29;;;;;;;1950.43;303.13;;;4.00;99.90;;;;;;5030720;28;20287;-84
2023/04/14 01:33:19;;;;;;;38.30;27.07;;;4.00;99.90;;;;;;5016679;28;20221;-84
2023/04/14 01:36:25;;;;;;;166.23;90.10;;;3.90;99.90;;;;;;5016082;28;20206;-84
2023/04/14 01:39:56;;;;;;;86.27;66.47;;;3.80;99.90;;;;;;5019480;28;20701;-84
2023/04/14 01:43:01;;;;;;;99.40;52.20;;;3.80;99.90;;;;;;5017211;28;20204;-84
2023/04/14 01:45:55;;;;;;;340.23;172.10;;;3.80;99.90;;;;;;5028626;28;20326;-85
2023/04/14 01:49:13;;;;;;;325.37;107.50;;;3.90;99.90;;;;;;5011466;28;20737;-84
2023/04/14 01:52:16;;;;;;;126.67;100.33;;;3.80;99.90;;;;;;5020387;28;20483;-84
2023/04/14 01:55:13;;;;;;;154.20;58.47;;;3.80;99.90;;;;;;5018418;28;20217;-84
2023/04/14 01:58:14;;;;;;;104.53;71.07;;;3.70;99.90;;;;;;5012344;28;20210;-84
2023/04/14 02:01:23;;;;;;;64.00;46.80;;;3.70;99.90;;;;;;5029217;28;20275;-84
2023/04/14 02:07:39;;;;;;;36.20;22.87;;;3.60;99.90;;;;;;5029621;28;20676;-84
2023/04/14 02:10:55;;;;;;;104.53;88.73;;;3.60;99.90;;;;;;5027070;28;20553;-84
2023/04/14 02:16:46;;;;;;;220.87;113.97;;;3.50;99.90;;;;;;5028561;28;20205;-84
2023/04/14 02:19:29;;;;;;;65.67;55.80;;;3.50;99.90;;;;;;5011740;28;20205;-84
2023/04/14 02:22:22;;;;;;;54.47;30.10;;;3.50;99.90;;;;;;5017885;28;20741;-84
2023/04/14 02:25:39;;;;;;;42.00;31.07;;;3.50;99.90;;;;;;5028860;28;20200;-85
2023/04/14 02:28:30;;;;;;;87.63;67.20;;;3.50;99.90;;;;;;5029551;28;20233;-84
2023/04/14 02:31:19;;;;;;;50.73;34.83;;;3.50;99.90;;;;;;5028939;28;20287;-83
2023/04/14 02:37:26;;;;;;;43.43;30.43;;;3.50;99.90;;;;;;5014218;28;20228;-84
2023/04/14 02:40:11;;;;;;;45.53;28.90;;;3.40;99.90;;;;;;5013961;28;20211;-84
2023/04/14 02:43:01;;;;;;;69.93;50.20;;;3.30;99.90;;;;;;5028674;28;20212;-84
2023/04/14 02:45:53;;;;;;;304.30;116.00;;;3.30;99.90;;;;;;5029214;28;20259;-84
2023/04/14 02:49:27;;;;;;;195.00;97.07;;;3.30;99.90;;;;;;5028191;28;20233;-84
2023/04/14 02:52:58;;;;;;;276.70;119.97;;;3.30;99.90;;;;;;5025584;28;20977;-84
2023/04/14 02:59:26;;;;;;;145.93;81.87;;;3.40;99.90;;;;;;5027712;28;20201;-84
2023/04/14 03:02:29;;;;;;;496.77;92.50;;;3.40;99.90;;;;;;5028135;28;20214;-84
2023/04/14 03:05:21;;;;;;;496.87;136.03;;;3.30;99.90;;;;;;5024173;28;20200;-84
2023/04/14 03:08:14;;;;;;;732.17;208.37;;;3.30;99.90;;;;;;5019865;28;20578;-84
2023/04/14 03:14:25;;;;;;;406.47;155.77;;;3.30;99.90;;;;;;5032304;28;20677;-84
2023/04/14 03:17:23;;;;;;;186.50;90.87;;;3.30;99.90;;;;;;5032436;28;20212;-84
2023/04/14 03:20:23;;;;;;;105.57;90.20;;;3.20;99.90;;;;;;5003675;28;20679;-84
2023/04/14 03:23:11;;;;;;;99.33;86.87;;;3.20;99.90;;;;;;5032172;28;20216;-84
2023/04/14 03:29:06;;;;;;;70.60;50.90;;;3.30;99.90;;;;;;5031727;28;20238;-85
2023/04/14 03:32:05;;;;;;;90.57;69.23;;;3.20;99.90;;;;;;5032696;28;20225;-84
2023/04/14 03:35:05;;;;;;;84.90;56.37;;;3.10;99.90;;;;;;5031524;28;20248;-84
2023/04/14 03:38:09;;;;;;;123.17;98.53;;;3.00;99.90;;;;;;5032523;28;20259;-86
2023/04/14 03:40:46;;;;;;;80.80;60.87;;;3.10;99.90;;;;;;5021095;28;20208;-84
2023/04/14 03:43:21;;;;;;;89.90;72.13;;;2.90;99.90;;;;;;5033571;28;20297;-85
2023/04/14 03:46:10;;;;;;;68.57;47.63;;;3.00;99.90;;;;;;5032854;28;20199;-84
2023/04/14 03:49:01;;;;;;;90.70;46.50;;;3.00;99.90;;;;;;5034457;28;20318;-84
2023/04/14 03:52:02;;;;;;;160.13;94.33;;;3.00;99.90;;;;;;5033972;28;20220;-84
2023/04/14 03:54:46;;;;;;;199.00;151.57;;;3.00;99.90;;;;;;5015403;28;20223;-84
2023/04/14 03:57:50;;;;;;;423.27;201.07;;;2.90;99.90;;;;;;5032991;28;20221;-84
2023/04/14 04:00:21;;;;;;;158.73;55.37;;;2.90;99.90;;;;;;5033078;28;20937;-84
2023/04/14 04:03:19;;;;;;;169.93;120.97;;;2.90;99.90;;;;;;5034151;28;20213;-84
2023/04/14 04:06:12;;;;;;;304.47;147.97;;;2.90;99.90;;;;;;5033831;28;20755;-85
2023/04/14 04:09:04;;;;;;;157.37;100.33;;;2.90;99.90;;;;;;5036222;28;20230;-85
2023/04/14 04:17:32;;;;;;;35.43;30.47;;;3.00;99.90;;;;;;5054132;28;20219;-87
2023/04/14 04:23:30;;;;;;;68.57;42.50;;;3.00;99.90;;;;;;5037592;28;20210;-84
2023/04/14 04:26:15;;;;;;;48.03;33.87;;;3.00;99.90;;;;;;5013902;28;20218;-85
2023/04/14 04:29:29;;;;;;;76.70;57.30;;;2.90;99.90;;;;;;4998139;28;20234;-84
2023/04/14 04:32:07;;;;;;;62.60;54.67;;;2.90;99.90;;;;;;5029528;28;20210;-85
2023/04/14 04:34:50;;;;;;;68.43;59.93;;;2.90;99.90;;;;;;5027637;28;20208;-85
2023/04/14 04:37:52;;;;;;;46.77;31.37;;;2.90;99.90;;;;;;5019068;28;20208;-84
2023/04/14 04:40:21;;;;;;;48.17;32.87;;;2.80;99.90;;;;;;5030715;28;20206;-85
2023/04/14 04:42:52;;;;;;;37.73;22.23;;;2.80;99.90;;;;;;5001908;28;20289;-84
2023/04/14 04:46:02;;;;;;;79.13;69.90;;;2.80;99.90;;;;;;5029256;28;20198;-84
2023/04/14 04:48:40;;;;;;;115.70;96.37;;;2.80;99.90;;;;;;5026776;28;20325;-84
2023/04/14 04:51:20;;;;;;;64.07;56.23;;;2.70;99.90;;;;;;5030572;28;20240;-85
2023/04/14 04:53:53;;;;;;;59.80;47.50;;;2.70;99.90;;;;;;4999856;28;20208;-84
2023/04/14 04:56:38;;;;;;;99.97;89.73;;;2.80;99.90;;;;;;5029963;28;20217;-85
2023/04/14 04:59:10;;;;;;;39.63;33.93;;;2.80;99.90;;;;;;5029991;28;20216;-85
2023/04/14 05:02:04;;;;;;;75.40;64.37;;;2.80;99.90;;;;;;5014429;28;20212;-84
2023/04/14 05:04:48;;;;;;;109.90;84.37;;;2.80;99.90;;;;;;5021517;28;20256;-84
2023/04/14 05:07:27;;;;;;;273.07;182.53;;;2.80;99.90;;;;;;5023384;28;20222;-86
2023/04/14 05:09:59;;;;;;;126.27;68.33;;;3.10;99.90;;;;;;5028713;28;20254;-86
2023/04/14 05:15:20;;;;;;;48.13;28.10;;;3.70;99.90;;;;;;5028251;28;20214;-85
2023/04/14 05:18:16;;;;;;;49.87;36.17;;;3.90;99.90;;;;;;5120538;27;20963;-50
2023/04/14 05:20:44;;;;;;;172.60;86.97;;;4.00;99.90;;;;;;5122658;27;20308;-51
2023/04/14 05:23:12;;;;;;;111.23;72.73;;;4.20;99.90;;;;;;5126524;27;20324;-50
2023/04/14 05:25:40;;;;;;;91.57;58.83;;;4.50;99.90;;;;;;5126543;27;20212;-50
2023/04/14 05:28:08;;;;;;;394.10;152.00;;;4.80;99.90;;;;;;5126665;27;20679;-50
2023/04/14 05:30:36;;;;;;;349.73;138.87;;;5.20;99.90;;;;;;5124630;27;20204;-51
2023/04/14 05:33:04;;;;;;;699.23;190.90;;;5.40;99.90;;;;;;5089672;28;20668;-50
2023/04/14 05:35:33;;;;;;;137.80;60.57;;;5.40;99.90;;;;;;5092831;28;20670;-50
2023/04/14 05:38:01;;;;;;;63.63;41.50;;;5.40;99.90;;;;;;5087875;28;20318;-49
2023/04/14 05:40:32;;;;;;;242.97;104.47;;;5.40;99.90;;;;;;5090699;28;20349;-50
2023/04/14 05:43:00;;;;;;;359.63;123.00;;;5.40;99.90;;;;;;5103556;28;20325;-50
2023/04/14 05:45:28;;;;;;;80.67;66.90;;;5.30;99.90;;;;;;5090522;28;20211;-50
2023/04/14 05:47:56;;;;;;;155.33;102.47;;;5.20;99.90;;;;;;5097430;28;20198;-50
2023/04/14 05:50:25;;;;;;;74.40;38.63;;;5.40;99.90;;;;;;5105623;28;20215;-50
2023/04/14 05:52:54;;;;;;;69.37;44.77;;;5.50;99.90;;;;;;5105569;28;20222;-50
2023/04/14 05:55:22;;;;;;;269.67;126.97;;;5.50;99.90;;;;;;5105154;28;20294;-50
2023/04/14 05:57:51;;;;;;;200.67;68.70;;;5.60;99.90;;;;;;5105709;28;20342;-50
2023/04/14 06:00:22;;;;;;;599.47;193.93;;;5.80;99.90;;;;;;5105963;28;20287;-48
2023/04/14 06:02:50;;;;;;;677.67;219.67;;;6.10;99.90;;;;;;5105682;28;20306;-50
2023/04/14 06:05:18;;;;;;;1023.13;311.87;;;6.50;99.90;;;;;;5105734;28;20212;-51
2023/04/14 06:07:47;;;;;;;1743.10;486.03;;;6.70;99.90;;;;;;5105201;28;20200;-50
2023/04/14 06:10:16;;;;;;;1999.90;565.40;;;6.70;99.90;;;;;;5097651;28;20641;-51
2023/04/14 06:12:44;;;;;;;1866.13;567.13;;;6.80;99.90;;;;;;5105544;28;20228;-51
2023/04/14 06:15:12;;;;;;;1875.70;500.83;;;6.90;99.90;;;;;;5105452;28;20693;-50
2023/04/14 06:17:40;;;;;;;1542.40;416.00;;;7.20;99.90;;;;;;5105138;28;20225;-50
2023/04/14 06:20:10;;;;;;;1999.90;810.37;;;7.50;99.90;;;;;;5105431;28;20207;-51
2023/04/14 06:22:39;;;;;;;1999.90;892.60;;;8.00;99.90;;;;;;5105082;28;20229;-51
2023/04/14 06:25:08;;;;;;;1999.90;862.60;;;8.30;99.90;;;;;;5105403;28;20242;-50
2023/04/14 06:27:37;;;;;;;1999.90;916.87;;;8.50;99.90;;;;;;5103007;28;20686;-51
2023/04/14 06:30:06;;;;;;;1999.90;906.53;;;8.90;99.90;;;;;;5092013;28;20211;-51
2023/04/14 06:32:34;;;;;;;1999.90;964.53;;;9.30;99.90;;;;;;5091259;28;20224;-51
2023/04/14 06:35:03;;;;;;;1999.90;889.13;;;9.50;99.90;;;;;;5091715;28;20208;-50
2023/04/14 06:37:32;;;;;;;1999.90;954.83;;;9.80;99.90;;;;;;5091960;28;20231;-50
2023/04/14 06:40:00;;;;;;;1999.90;940.13;;;10.10;99.90;;;;;;5091852;28;20310;-50
2023/04/14 06:42:28;;;;;;;1999.90;901.97;;;10.50;99.90;;;;;;5091712;28;20235;-50
2023/04/14 06:44:57;;;;;;;1999.90;946.73;;;10.30;99.90;;;;;;5091475;28;20201;-50
2023/04/14 06:47:25;;;;;;;1999.90;984.80;;;10.30;99.90;;;;;;5091214;28;20299;-52
2023/04/14 06:49:53;;;;;;;1999.90;966.10;;;10.60;99.90;;;;;;5091715;28;20216;-52
2023/04/14 06:52:21;;;;;;;1999.90;973.20;;;10.90;99.90;;;;;;5091350;28;20318;-52
2023/04/14 06:54:49;;;;;;;1999.90;999.90;;;11.10;99.90;;;;;;5091548;28;20212;-51
2023/04/14 06:57:17;;;;;;;1999.90;999.90;;;11.30;99.90;;;;;;5091442;28;20661;-51
2023/04/14 06:59:45;;;;;;;1999.90;999.90;;;11.40;99.90;;;;;;5101358;28;20210;-51
2023/04/14 07:02:15;;;;;;;1999.90;999.90;;;11.70;99.90;;;;;;5092673;28;20247;-52
2023/04/14 07:04:43;;;;;;;1999.90;999.90;;;11.80;99.90;;;;;;5099458;28;20201;-51
2023/04/14 07:07:13;;;;;;;1999.90;999.90;;;11.90;99.90;;;;;;5100611;28;20200;-51
2023/04/14 07:09:42;;;;;;;1999.90;999.90;;;12.30;99.90;;;;;;5100671;28;20203;-51
2023/04/14 07:12:13;;;;;;;1999.90;999.90;;;12.30;99.90;;;;;;5101294;28;20242;-52
2023/04/14 07:14:41;;;;;;;1999.90;999.90;;;12.20;99.90;;;;;;5099817;28;20299;-53
2023/04/14 07:17:09;;;;;;;1999.90;999.90;;;12.20;99.90;;;;;;5088122;28;20266;-51
2023/04/14 07:19:39;;;;;;;1999.90;999.90;;;12.30;99.90;;;;;;5085060;28;20960;-51
2023/04/14 07:22:07;;;;;;;1999.90;999.90;;;12.40;99.90;;;;;;5088756;28;20303;-51
2023/04/14 07:24:35;;;;;;;1999.90;999.90;;;12.60;99.90;;;;;;5088414;28;20881;-51
2023/04/14 07:27:06;;;;;;;1999.90;999.90;;;12.80;99.90;;;;;;5088655;28;20319;-50
2023/04/14 07:29:34;;;;;;;1999.90;999.90;;;13.00;99.90;;;;;;5090109;28;20200;-52
2023/04/14 07:32:02;;;;;;;1999.90;999.90;;;13.10;99.90;;;;;;5092196;28;20208;-52
2023/04/14 07:34:32;;;;;;;1999.90;999.90;;;13.00;99.90;;;;;;5088795;28;20235;-51
2023/04/14 07:37:02;;;;;;;1999.90;999.90;;;13.10;99.90;;;;;;5093627;28;20296;-51
2023/04/14 07:39:30;;;;;;;1999.90;999.90;;;13.30;99.90;;;;;;5092021;28;20647;-51
2023/04/14 07:42:00;;;;;;;1999.90;999.90;;;13.30;99.90;;;;;;5088294;28;20283;-52
2023/04/14 07:44:28;;;;;;;1999.90;999.90;;;13.40;99.90;;;;;;5092700;28;20235;-52
2023/04/14 07:46:56;;;;;;;1999.90;999.90;;;13.50;99.90;;;;;;5089492;28;20771;-52
2023/04/14 07:49:24;;;;;;;1999.90;999.90;;;13.70;99.90;;;;;;5092088;28;20198;-50
2023/04/14 07:51:52;;;;;;;1999.90;999.90;;;13.80;99.90;;;;;;5090787;28;20846;-51
2023/04/14 07:54:22;;;;;;;1999.90;999.90;;;13.80;99.90;;;;;;5088721;28;20288;-52
2023/04/14 07:56:50;;;;;;;1999.90;999.90;;;13.80;99.90;;;;;;5089620;28;20204;-51
2023/04/14 07:59:18;;;;;;;1999.90;999.90;;;13.90;99.90;;;;;;5093657;28;20314;-50
2023/04/14 08:01:48;;;;;;;1999.90;999.90;;;13.90;99.90;;;;;;5088734;28;20299;-51
2023/04/14 08:04:18;;;;;;;1999.90;999.90;;;13.80;99.90;;;;;;5088777;28;20928;-51
2023/04/14 08:06:47;;;;;;;1999.90;999.90;;;13.50;99.90;;;;;;5093611;28;20211;-51
2023/04/14 08:09:16;;;;;;;1999.90;998.00;;;13.50;99.90;;;;;;5084873;28;20239;-51
2023/04/14 08:11:45;;;;;;;1999.90;999.90;;;13.50;99.90;;;;;;5089480;28;20281;-51
2023/04/14 08:14:13;;;;;;;1999.90;762.30;;;13.50;99.90;;;;;;5089316;28;20307;-51
2023/04/14 08:16:41;;;;;;;1999.90;999.90;;;13.50;99.90;;;;;;5089426;28;20299;-51
2023/04/14 08:19:09;;;;;;;1999.90;999.90;;;13.40;99.90;;;;;;5086650;28;20454;-51
2023/04/14 08:21:37;;;;;;;1999.90;933.80;;;13.60;99.90;;;;;;5087504;28;20686;-50
2023/04/14 08:24:06;;;;;;;1999.90;833.80;;;13.50;99.90;;;;;;5087537;28;20717;-50
2023/04/14 08:26:34;;;;;;;1999.90;904.13;;;13.50;99.90;;;;;;5088132;28;20208;-51
2023/04/14 08:29:03;;;;;;;1999.90;986.20;;;13.60;99.90;;;;;;5087849;28;20303;-51
2023/04/14 08:31:31;;;;;;;1999.90;989.40;;;13.60;99.90;;;;;;5087880;28;20212;-50
2023/04/14 08:34:00;;;;;;;1999.90;836.83;;;13.70;99.90;;;;;;5088427;28;20598;-51
2023/04/14 08:36:28;;;;;;;1999.90;966.75;;;13.70;99.90;;;;;;5089586;28;20204;-51
2023/04/14 08:38:58;;;;;;;1999.90;951.20;;;13.80;99.90;;;;;;5089335;28;20717;-50
2023/04/14 08:41:28;;;;;;;1999.90;908.85;;;13.40;99.90;;;;;;5089711;28;20219;-51
2023/04/14 08:43:56;;;;;;;1999.90;973.95;;;13.10;99.90;;;;;;5088991;28;20796;-50
2023/04/14 08:46:27;;;;;;;1999.90;776.70;;;12.80;99.90;;;;;;5089693;28;20647;-50
2023/04/14 08:49:02;;;;;;;1999.90;999.90;;;12.70;99.90;;;;;;5089687;28;20208;-50
2023/04/14 08:51:34;;;;;;;1999.90;784.90;;;12.60;99.90;;;;;;5089190;28;20294;-50
2023/04/14 08:54:05;;;;;;;1999.90;880.50;;;12.50;99.90;;;;;;5089143;28;20289;-50
2023/04/14 08:56:36;;;;;;;1999.90;999.90;;;12.60;99.90;;;;;;5089143;28;20654;-50
2023/04/14 08:59:07;;;;;;;1999.90;928.23;;;12.60;99.90;;;;;;5089203;28;20348;-50
2023/04/14 09:01:38;;;;;;;1999.90;787.40;;;12.60;99.90;;;;;;5089345;28;20915;-50
2023/04/14 09:04:07;;;;;;;1999.90;999.90;;;12.70;99.90;;;;;;5089073;28;20744;-50
2023/04/14 09:06:36;;;;;;;1999.90;708.30;;;12.80;99.90;;;;;;5089102;28;20208;-50
2023/04/14 09:09:06;;;;;;;1999.90;959.87;;;13.10;99.90;;;;;;5088901;28;20203;-50
2023/04/14 09:11:35;;;;;;;1999.90;812.17;;;13.20;99.90;;;;;;5089388;28;20287;-50
2023/04/14 09:14:03;;;;;;;1999.90;595.60;;;13.20;99.90;;;;;;5088778;28;20310;-50
2023/04/14 09:16:32;;;;;;;1999.90;921.17;;;13.30;99.90;;;;;;5089091;28;20227;-50
2023/04/14 09:19:03;;;;;;;1999.90;999.90;;;13.20;99.90;;;;;;5088822;28;20784;-50
2023/04/14 09:21:35;;;;;;;1999.90;999.85;;;13.20;99.90;;;;;;5088932;28;20746;-51
2023/04/14 09:24:27;;;;;;;1999.90;925.13;;;13.20;99.90;;;;;;5089423;28;20212;-50
2023/04/14 09:27:00;;;;;;;1999.90;867.73;;;13.10;99.90;;;;;;5089053;28;20204;-50
2023/04/14 09:29:28;;;;;;;1999.90;987.93;;;13.10;99.90;;;;;;5089160;28;20290;-50
2023/04/14 09:31:57;;;;;;;1999.90;916.70;;;13.10;99.90;;;;;;5088203;28;20923;-50
2023/04/14 09:34:26;;;;;;;1999.90;999.90;;;13.10;99.90;;;;;;5089168;28;20204;-50
2023/04/14 09:37:03;;;;;;;1999.90;999.90;;;13.10;99.90;;;;;;5088868;28;20697;-50
2023/04/14 09:39:32;;;;;;;1999.90;765.17;;;13.20;99.90;;;;;;5088221;28;20270;-50
2023/04/14 09:42:00;;;;;;;1999.90;999.90;;;13.20;99.90;;;;;;5088873;28;20214;-51
2023/04/14 09:44:29;;;;;;;1999.90;999.90;;;13.20;99.90;;;;;;5088365;28;20234;-51
2023/04/14 09:47:01;;;;;;;1999.90;999.90;;;13.10;99.90;;;;;;5088566;28;20226;-50
2023/04/14 09:49:31;;;;;;;1999.90;999.90;;;13.00;99.90;;;;;;5088905;28;20197;-50
2023/04/14 09:52:04;;;;;;;1999.90;775.92;;;13.10;99.90;;;;;;5094030;28;20204;-51
2023/04/14 09:54:32;;;;;;;1999.90;999.90;;;13.10;99.90;;;;;;5098682;28;20282;-50
2023/04/14 09:57:01;;;;;;;1999.90;944.70;;;13.20;99.90;;;;;;5088329;28;20745;-50
2023/04/14 09:59:33;;;;;;;1999.90;999.90;;;13.20;99.90;;;;;;5087960;28;20315;-51
2023/04/14 10:02:05;;;;;;;1999.90;999.90;;;13.20;99.90;;;;;;5074339;28;20291;-50
2023/04/14 10:04:36;;;;;;;1999.90;999.90;;;13.20;99.90;;;;;;5070955;28;20679;-51
2023/04/14 10:07:07;;;;;;;1999.90;999.90;;;13.20;99.90;;;;;;5082613;28;20212;-51
2023/04/14 10:09:37;;;;;;;1999.90;999.90;;;13.30;99.90;;;;;;5092045;28;20201;-50
2023/04/14 10:12:10;;;;;;;1999.90;999.90;;;13.30;99.90;;;;;;5092240;28;20208;-51
2023/04/14 10:14:39;;;;;;;1999.90;999.90;;;13.20;99.90;;;;;;5092498;28;20208;-51
2023/04/14 10:17:08;;;;;;;1999.90;999.90;;;13.20;99.90;;;;;;5092112;28;20663;-51
2023/04/14 10:19:37;;;;;;;1999.90;999.90;;;13.20;99.90;;;;;;5091403;28;20254;-51
2023/04/14 10:22:06;;;;;;;1999.90;999.90;;;13.10;99.90;;;;;;5091903;28;20244;-50
2023/04/14 10:24:34;;;;;;;1999.90;999.90;;;13.10;99.90;;;;;;5092488;28;20591;-50
2023/04/14 10:27:03;;;;;;;1999.90;999.90;;;13.00;99.90;;;;;;5074798;28;20212;-50
2023/04/14 10:29:32;;;;;;;1999.90;999.90;;;13.10;99.90;;;;;;5076124;28;20246;-50
2023/04/14 10:32:05;;;;;;;1999.90;999.90;;;13.10;99.90;;;;;;5089913;28;20303;-50
2023/04/14 10:34:34;;;;;;;1999.90;999.90;;;13.20;99.90;;;;;;5090321;28;20214;-50
2023/04/14 10:37:16;;;;;;;1999.90;999.90;;;13.30;99.90;;;;;;5103185;28;20287;-51
2023/04/14 10:39:54;;;;;;;1999.90;999.90;;;13.50;99.90;;;;;;5090988;28;20303;-50
2023/04/14 10:42:23;;;;;;;1999.90;999.90;;;13.50;99.90;;;;;;5098745;28;20215;-51
2023/04/14 10:45:05;;;;;;;1999.90;999.90;;;13.50;99.90;;;;;;5099038;28;20406;-50
2023/04/14 10:47:34;;;;;;;1999.90;999.90;;;13.30;99.90;;;;;;5093787;28;20674;-51
2023/04/14 10:50:13;;;;;;;1999.90;993.50;;;13.30;99.90;;;;;;5090917;28;20196;-49
2023/04/14 10:52:53;;;;;;;1999.90;798.80;;;13.30;99.90;;;;;;5090703;28;20232;-50
2023/04/14 10:55:22;;;;;;;1999.90;860.03;;;13.30;99.90;;;;;;5090123;28;20200;-50
2023/04/14 10:57:50;;;;;;;1999.90;799.30;;;13.30;99.90;;;;;;5090847;28;20243;-50
2023/04/14 11:00:24;;;;;;;1999.90;921.67;;;13.20;99.90;;;;;;5090587;28;20311;-50
2023/04/14 11:02:57;;;;;;;1999.90;837.03;;;13.10;99.90;;;;;;5090462;28;20277;-50
2023/04/14 11:05:26;;;;;;;1999.90;526.37;;;13.10;99.90;;;;;;5090036;28;20686;-50
2023/04/14 11:07:57;;;;;;;1863.57;410.60;;;13.10;99.90;;;;;;5079164;28;20236;-51
2023/04/14 11:10:31;;;;;;;1999.90;709.78;;;13.00;99.90;;;;;;5082531;28;20208;-49
2023/04/14 11:13:05;;;;;;;1999.90;531.90;;;13.20;99.90;;;;;;5088886;28;20362;-52
2023/04/14 11:15:44;;;;;;;1999.90;750.63;;;13.20;99.90;;;;;;5086135;28;20264;-50
2023/04/14 11:18:14;;;;;;;1999.90;928.30;;;13.10;99.90;;;;;;5085824;28;20257;-49
2023/04/14 11:20:43;;;;;;;1999.90;801.37;;;13.20;99.90;;;;;;5084975;28;20311;-50
2023/04/14 11:23:15;;;;;;;1999.90;872.30;;;13.20;99.90;;;;;;5084952;28;20274;-51
2023/04/14 11:25:44;;;;;;;1999.90;999.90;;;13.10;99.90;;;;;;5084836;28;20231;-50
2023/04/14 11:28:12;;;;;;;1999.90;808.33;;;13.10;99.90;;;;;;5087510;28;20693;-50
2023/04/14 11:30:41;;;;;;;1999.90;999.90;;;12.90;99.90;;;;;;5089629;28;20200;-51
2023/04/14 11:33:09;;;;;;;1999.90;924.80;;;12.90;99.90;;;;;;5089893;28;20232;-50
2023/04/14 11:35:38;;;;;;;1999.90;911.27;;;12.90;99.90;;;;;;5086485;28;20208;-51
2023/04/14 11:38:10;;;;;;;1999.90;916.30;;;12.80;99.90;;;;;;5087168;28;20642;-51
2023/04/14 11:40:40;;;;;;;1999.90;882.33;;;12.80;99.90;;;;;;5087714;28;20312;-50
2023/04/14 11:43:08;;;;;;;1999.90;939.20;;;12.80;99.90;;;;;;5087747;28;20319;-51
2023/04/14 11:45:42;;;;;;;1999.90;934.42;;;12.80;99.90;;;;;;5088222;28;20315;-50
2023/04/14 11:48:11;;;;;;;1999.90;747.70;;;13.00;99.90;;;;;;5088477;28;20203;-51
2023/04/14 11:50:40;;;;;;;1999.90;763.70;;;13.20;99.90;;;;;;5090796;28;20238;-51
2023/04/14 11:53:08;;;;;;;1999.90;999.90;;;13.30;99.90;;;;;;5090870;28;20985;-50
2023/04/14 11:55:37;;;;;;;1999.90;999.90;;;13.40;99.90;;;;;;5088398;28;20833;-50
2023/04/14 11:58:06;;;;;;;1999.90;931.13;;;13.40;99.90;;;;;;5088743;28;20291;-51
2023/04/14 12:00:35;;;;;;;1999.90;999.90;;;13.60;99.90;;;;;;5089896;28;20766;-50
2023/04/14 12:03:04;;;;;;;1999.90;999.90;;;13.80;99.90;;;;;;5090229;28;20255;-51
2023/04/14 12:05:34;;;;;;;1999.90;999.90;;;14.00;99.90;;;;;;5090061;28;20200;-50
2023/04/14 12:08:06;;;;;;;1999.90;892.05;;;14.10;99.90;;;;;;5089963;28;20291;-50
2023/04/14 12:10:34;;;;;;;1999.90;999.90;;;14.30;99.90;;;;;;5089953;28;20192;-50
2023/04/14 12:13:04;;;;;;;1999.90;999.17;;;14.30;99.90;;;;;;5090075;28;20259;-50
2023/04/14 12:15:36;;;;;;;1999.90;999.90;;;14.40;99.90;;;;;;5089859;28;20239;-50
2023/04/14 12:18:07;;;;;;;1999.90;999.90;;;14.60;99.90;;;;;;5089650;28;20274;-50
2023/04/14 12:20:42;;;;;;;1999.90;999.90;;;14.50;99.90;;;;;;5089596;28;20239;-51
2023/04/14 12:23:11;;;;;;;1999.90;999.90;;;14.50;99.90;;;;;;5089874;28;20774;-51
2023/04/14 12:25:39;;;;;;;1999.90;999.90;;;14.60;99.90;;;;;;5089396;28;20236;-50
2023/04/14 12:28:08;;;;;;;1999.90;999.90;;;14.70;99.90;;;;;;5089689;28;20261;-51
2023/04/14 12:30:50;;;;;;;1999.90;999.90;;;15.00;99.90;;;;;;5089437;28;20238;-51
2023/04/14 12:33:21;;;;;;;1999.90;999.90;;;15.00;99.90;;;;;;5080923;28;20285;-50
2023/04/14 12:35:51;;;;;;;1999.90;999.90;;;15.10;99.90;;;;;;5068267;28;20655;-51
2023/04/14 12:38:19;;;;;;;1999.90;999.90;;;15.30;99.90;;;;;;5068365;28;20289;-50
2023/04/14 12:40:48;;;;;;;1999.90;999.90;;;15.40;99.90;;;;;;5068146;28;20320;-50
2023/04/14 12:43:16;;;;;;;1999.90;999.90;;;15.50;99.90;;;;;;5067744;28;20316;-51
2023/04/14 12:45:47;;;;;;;1999.90;999.90;;;15.30;99.90;;;;;;5066558;28;20267;-50
2023/04/14 12:48:17;;;;;;;1999.90;999.90;;;15.30;99.90;;;;;;5067171;28;20235;-50
2023/04/14 12:50:45;;;;;;;1999.90;999.90;;;15.40;99.90;;;;;;5066788;28;20201;-51
2023/04/14 12:53:23;;;;;;;1999.90;999.90;;;15.70;99.90;;;;;;5066450;28;20766;-50
2023/04/14 12:56:05;;;;;;;1999.90;999.90;;;15.90;99.90;;;;;;5067866;28;21007;-51
2023/04/14 12:58:33;;;;;;;1999.90;999.90;;;15.90;99.90;;;;;;5087923;28;20302;-50
2023/04/14 13:01:04;;;;;;;1999.90;999.90;;;15.90;99.90;;;;;;5089058;28;20247;-51
2023/04/14 13:03:43;;;;;;;1999.90;999.90;;;15.80;99.90;;;;;;5088396;28;20228;-51
2023/04/14 13:06:15;;;;;;;1999.90;999.90;;;15.60;99.90;;;;;;5089311;28;20253;-50
2023/04/14 13:08:44;;;;;;;1999.90;999.90;;;15.70;99.90;;;;;;5088855;28;20548;-51
2023/04/14 13:11:12;;;;;;;1999.90;999.90;;;15.60;99.90;;;;;;5089108;28;20208;-50
2023/04/14 13:13:40;;;;;;;1999.90;999.90;;;15.50;99.90;;;;;;5088784;28;20230;-51
2023/04/14 13:16:10;;;;;;;1999.90;999.90;;;15.50;99.90;;;;;;5088781;28;20240;-51
2023/04/14 13:18:43;;;;;;;1999.90;999.90;;;15.60;99.90;;;;;;5088989;28;20254;-50
2023/04/14 13:21:11;;;;;;;1999.90;999.90;;;15.60;99.90;;;;;;5088278;28;20299;-51
2023/04/14 13:23:39;;;;;;;1999.90;999.90;;;15.70;99.90;;;;;;5088633;28;20255;-51
2023/04/14 13:26:08;;;;;;;1999.90;999.90;;;15.70;99.90;;;;;;5088970;28;20959;-51
2023/04/14 13:28:36;;;;;;;1999.90;999.90;;;15.50;99.90;;;;;;5088884;28;20749;-50
2023/04/14 13:31:04;;;;;;;1999.90;999.90;;;15.30;99.90;;;;;;5086404;28;20295;-51
2023/04/14 13:33:34;;;;;;;1999.90;999.90;;;15.20;99.90;;;;;;5085443;28;20236;-51
2023/04/14 13:36:02;;;;;;;1999.90;999.90;;;15.30;99.90;;;;;;5087354;28;20586;-50
2023/04/14 13:38:30;;;;;;;1999.90;999.90;;;15.40;99.90;;;;;;5088247;28;20207;-50
2023/04/14 13:40:59;;;;;;;1999.90;999.90;;;15.30;99.90;;;;;;5090791;28;20245;-51
2023/04/14 13:43:27;;;;;;;1999.90;999.90;;;15.40;99.90;;;;;;5090983;28;20258;-55
2023/04/14 13:45:56;;;;;;;1999.90;999.90;;;15.40;99.90;;;;;;5090668;28;20283;-51
2023/04/14 13:48:25;;;;;;;1999.90;999.90;;;15.20;99.90;;;;;;5092793;28;20239;-50
2023/04/14 13:50:54;;;;;;;1999.90;999.90;;;15.00;99.90;;;;;;5092855;28;20251;-51
2023/04/14 13:53:22;;;;;;;1999.90;999.90;;;14.90;99.90;;;;;;5092562;28;20950;-50
2023/04/14 13:55:51;;;;;;;1999.90;999.90;;;14.90;99.90;;;;;;5092345;28;20291;-50